Terminal Aerodrome Forecast
Issued by NWS

Home | Current Version | Previous Version | Text Only | Print | Product List | Glossary On
Versions: 1 2 3 4 5 6 7 8 9 10 11 12 13 14 15 16 17 18 19 20 21 22 23 24 25 26 27 28 29
000
FTUS41 KPHI 051306 AAA
TAFPNE
TAF AMD
KPNE 051306Z 0513/0612 05010KT P6SM OVC014
      TEMPO 0513/0515 5SM -DZ BR OVC008
     FM051600 04010G18KT P6SM OVC018
     FM052000 04010KT P6SM OVC035
     FM060900 03006KT 5SM -RA BR OVC010=

USA.gov is the U.S. government's official web portal to all federal, state and local government web resources and services.